sensor_id;sensor_type;location;lat;lon;timestamp;P1;durP1;ratioP1;P2;durP2;ratioP2
29854;SDS011;16733;48.738;9.106;2023-08-17T00:01:06;20.55;;;8.07;;
29854;SDS011;16733;48.738;9.106;2023-08-17T00:03:32;11.55;;;7.95;;
29854;SDS011;16733;48.738;9.106;2023-08-17T00:05:58;21.88;;;8.50;;
29854;SDS011;16733;48.738;9.106;2023-08-17T00:08:24;14.93;;;8.38;;
29854;SDS011;16733;48.738;9.106;2023-08-17T00:10:50;11.05;;;7.80;;
29854;SDS011;16733;48.738;9.106;2023-08-17T00:13:16;14.18;;;7.68;;
29854;SDS011;16733;48.738;9.106;2023-08-17T00:15:42;10.68;;;7.38;;
29854;SDS011;16733;48.738;9.106;2023-08-17T00:18:10;12.07;;;6.65;;
29854;SDS011;16733;48.738;9.106;2023-08-17T00:20:37;11.60;;;7.18;;
29854;SDS011;16733;48.738;9.106;2023-08-17T00:23:03;14.82;;;8.02;;
29854;SDS011;16733;48.738;9.106;2023-08-17T00:25:29;10.95;;;7.45;;
29854;SDS011;16733;48.738;9.106;2023-08-17T00:27:55;12.55;;;7.60;;
29854;SDS011;16733;48.738;9.106;2023-08-17T00:30:21;21.25;;;8.05;;
29854;SDS011;16733;48.738;9.106;2023-08-17T00:32:47;12.10;;;7.22;;
29854;SDS011;16733;48.738;9.106;2023-08-17T00:35:13;18.63;;;8.30;;
29854;SDS011;16733;48.738;9.106;2023-08-17T00:37:39;16.25;;;8.50;;
29854;SDS011;16733;48.738;9.106;2023-08-17T00:40:05;14.70;;;7.78;;
29854;SDS011;16733;48.738;9.106;2023-08-17T00:42:31;10.75;;;7.50;;
29854;SDS011;16733;48.738;9.106;2023-08-17T00:44:57;12.70;;;8.30;;
29854;SDS011;16733;48.738;9.106;2023-08-17T00:47:23;12.02;;;7.78;;
29854;SDS011;16733;48.738;9.106;2023-08-17T00:49:50;19.65;;;7.97;;
29854;SDS011;16733;48.738;9.106;2023-08-17T00:52:16;10.25;;;6.95;;
29854;SDS011;16733;48.738;9.106;2023-08-17T00:54:42;12.40;;;8.10;;
29854;SDS011;16733;48.738;9.106;2023-08-17T00:57:08;16.02;;;8.15;;
29854;SDS011;16733;48.738;9.106;2023-08-17T00:59:35;13.38;;;8.13;;
29854;SDS011;16733;48.738;9.106;2023-08-17T01:02:01;13.10;;;7.60;;
29854;SDS011;16733;48.738;9.106;2023-08-17T01:04:27;15.20;;;7.70;;
29854;SDS011;16733;48.738;9.106;2023-08-17T01:06:53;12.68;;;7.55;;
29854;SDS011;16733;48.738;9.106;2023-08-17T01:09:19;10.90;;;7.68;;
29854;SDS011;16733;48.738;9.106;2023-08-17T01:14:39;12.48;;;7.35;;
29854;SDS011;16733;48.738;9.106;2023-08-17T01:17:10;12.98;;;7.00;;
29854;SDS011;16733;48.738;9.106;2023-08-17T01:19:38;10.07;;;7.05;;
29854;SDS011;16733;48.738;9.106;2023-08-17T01:22:07;13.60;;;7.70;;
29854;SDS011;16733;48.738;9.106;2023-08-17T01:24:34;15.45;;;7.72;;
29854;SDS011;16733;48.738;9.106;2023-08-17T01:27:00;16.25;;;7.65;;
29854;SDS011;16733;48.738;9.106;2023-08-17T01:29:26;13.30;;;7.47;;
29854;SDS011;16733;48.738;9.106;2023-08-17T01:34:19;10.15;;;6.50;;
29854;SDS011;16733;48.738;9.106;2023-08-17T01:36:52;9.35;;;7.13;;
29854;SDS011;16733;48.738;9.106;2023-08-17T01:39:19;16.33;;;7.82;;
29854;SDS011;16733;48.738;9.106;2023-08-17T01:41:47;9.48;;;6.60;;
29854;SDS011;16733;48.738;9.106;2023-08-17T01:44:13;11.13;;;7.85;;
29854;SDS011;16733;48.738;9.106;2023-08-17T01:46:40;9.80;;;7.03;;
29854;SDS011;16733;48.738;9.106;2023-08-17T01:49:07;14.27;;;6.80;;
29854;SDS011;16733;48.738;9.106;2023-08-17T01:51:32;14.07;;;7.72;;
29854;SDS011;16733;48.738;9.106;2023-08-17T01:53:58;11.77;;;7.35;;
29854;SDS011;16733;48.738;9.106;2023-08-17T01:56:24;12.65;;;7.50;;
29854;SDS011;16733;48.738;9.106;2023-08-17T01:58:50;11.35;;;7.38;;
29854;SDS011;16733;48.738;9.106;2023-08-17T02:01:16;13.07;;;7.22;;
29854;SDS011;16733;48.738;9.106;2023-08-17T02:03:42;13.55;;;7.32;;
29854;SDS011;16733;48.738;9.106;2023-08-17T02:06:08;12.23;;;7.18;;
29854;SDS011;16733;48.738;9.106;2023-08-17T02:08:35;9.20;;;6.85;;
29854;SDS011;16733;48.738;9.106;2023-08-17T02:11:01;12.50;;;6.85;;
29854;SDS011;16733;48.738;9.106;2023-08-17T02:13:27;16.63;;;8.77;;
29854;SDS011;16733;48.738;9.106;2023-08-17T02:15:53;19.15;;;8.35;;
29854;SDS011;16733;48.738;9.106;2023-08-17T02:18:19;16.58;;;8.20;;
29854;SDS011;16733;48.738;9.106;2023-08-17T02:20:45;16.95;;;8.00;;
29854;SDS011;16733;48.738;9.106;2023-08-17T02:23:11;17.73;;;10.38;;
29854;SDS011;16733;48.738;9.106;2023-08-17T02:25:38;20.73;;;11.20;;
29854;SDS011;16733;48.738;9.106;2023-08-17T02:28:04;18.23;;;10.68;;
29854;SDS011;16733;48.738;9.106;2023-08-17T02:30:30;17.88;;;9.57;;
29854;SDS011;16733;48.738;9.106;2023-08-17T02:32:56;17.52;;;9.57;;
29854;SDS011;16733;48.738;9.106;2023-08-17T02:35:22;20.38;;;10.35;;
29854;SDS011;16733;48.738;9.106;2023-08-17T02:37:48;18.13;;;9.90;;
29854;SDS011;16733;48.738;9.106;2023-08-17T02:40:14;20.42;;;10.95;;
29854;SDS011;16733;48.738;9.106;2023-08-17T02:42:40;20.23;;;11.15;;
29854;SDS011;16733;48.738;9.106;2023-08-17T02:45:06;23.02;;;11.00;;
29854;SDS011;16733;48.738;9.106;2023-08-17T02:47:33;20.52;;;10.77;;
29854;SDS011;16733;48.738;9.106;2023-08-17T02:49:58;21.77;;;11.15;;
29854;SDS011;16733;48.738;9.106;2023-08-17T02:52:24;22.05;;;11.40;;
29854;SDS011;16733;48.738;9.106;2023-08-17T02:54:50;19.02;;;11.00;;
29854;SDS011;16733;48.738;9.106;2023-08-17T02:57:16;22.05;;;12.02;;
29854;SDS011;16733;48.738;9.106;2023-08-17T02:59:43;22.63;;;12.25;;
29854;SDS011;16733;48.738;9.106;2023-08-17T03:02:09;19.77;;;11.60;;
29854;SDS011;16733;48.738;9.106;2023-08-17T03:04:35;22.58;;;12.20;;
29854;SDS011;16733;48.738;9.106;2023-08-17T03:07:01;25.48;;;12.98;;
29854;SDS011;16733;48.738;9.106;2023-08-17T03:09:27;21.65;;;12.18;;
29854;SDS011;16733;48.738;9.106;2023-08-17T03:11:53;21.65;;;12.45;;
29854;SDS011;16733;48.738;9.106;2023-08-17T03:14:19;19.45;;;11.80;;
29854;SDS011;16733;48.738;9.106;2023-08-17T03:16:45;22.90;;;12.20;;
29854;SDS011;16733;48.738;9.106;2023-08-17T03:19:12;19.67;;;11.85;;
29854;SDS011;16733;48.738;9.106;2023-08-17T03:21:38;21.70;;;11.80;;
29854;SDS011;16733;48.738;9.106;2023-08-17T03:24:04;21.38;;;10.95;;
29854;SDS011;16733;48.738;9.106;2023-08-17T03:26:30;18.33;;;10.93;;
29854;SDS011;16733;48.738;9.106;2023-08-17T03:28:56;19.13;;;11.50;;
29854;SDS011;16733;48.738;9.106;2023-08-17T03:31:22;26.85;;;11.65;;
29854;SDS011;16733;48.738;9.106;2023-08-17T03:33:48;21.55;;;12.82;;
29854;SDS011;16733;48.738;9.106;2023-08-17T03:36:14;25.35;;;12.82;;
29854;SDS011;16733;48.738;9.106;2023-08-17T03:38:40;22.33;;;12.25;;
29854;SDS011;16733;48.738;9.106;2023-08-17T03:41:08;26.42;;;12.55;;
29854;SDS011;16733;48.738;9.106;2023-08-17T03:43:34;28.05;;;12.43;;
29854;SDS011;16733;48.738;9.106;2023-08-17T03:46:01;24.00;;;12.73;;
29854;SDS011;16733;48.738;9.106;2023-08-17T03:48:27;22.05;;;12.18;;
29854;SDS011;16733;48.738;9.106;2023-08-17T03:50:54;21.67;;;12.38;;
29854;SDS011;16733;48.738;9.106;2023-08-17T03:53:20;22.60;;;12.57;;
29854;SDS011;16733;48.738;9.106;2023-08-17T03:55:49;20.90;;;11.82;;
29854;SDS011;16733;48.738;9.106;2023-08-17T03:58:16;23.95;;;12.85;;
29854;SDS011;16733;48.738;9.106;2023-08-17T04:00:42;23.25;;;13.15;;
29854;SDS011;16733;48.738;9.106;2023-08-17T04:03:08;25.13;;;13.55;;
29854;SDS011;16733;48.738;9.106;2023-08-17T04:05:34;26.17;;;13.50;;
29854;SDS011;16733;48.738;9.106;2023-08-17T04:08:00;24.75;;;12.93;;
29854;SDS011;16733;48.738;9.106;2023-08-17T04:10:27;26.73;;;13.27;;
29854;SDS011;16733;48.738;9.106;2023-08-17T04:12:54;29.23;;;13.20;;
29854;SDS011;16733;48.738;9.106;2023-08-17T04:15:20;34.42;;;12.85;;
29854;SDS011;16733;48.738;9.106;2023-08-17T04:17:46;28.25;;;12.68;;
29854;SDS011;16733;48.738;9.106;2023-08-17T04:20:12;29.88;;;12.25;;
29854;SDS011;16733;48.738;9.106;2023-08-17T04:22:38;33.05;;;13.82;;
29854;SDS011;16733;48.738;9.106;2023-08-17T04:25:04;30.88;;;13.00;;
29854;SDS011;16733;48.738;9.106;2023-08-17T04:27:30;27.98;;;13.38;;
29854;SDS011;16733;48.738;9.106;2023-08-17T04:29:56;30.05;;;12.38;;
29854;SDS011;16733;48.738;9.106;2023-08-17T04:32:22;27.80;;;13.43;;
29854;SDS011;16733;48.738;9.106;2023-08-17T04:34:48;26.17;;;12.82;;
29854;SDS011;16733;48.738;9.106;2023-08-17T04:37:15;28.48;;;14.25;;
29854;SDS011;16733;48.738;9.106;2023-08-17T04:39:41;27.25;;;13.25;;
29854;SDS011;16733;48.738;9.106;2023-08-17T04:42:08;27.08;;;12.73;;
29854;SDS011;16733;48.738;9.106;2023-08-17T04:44:34;28.00;;;13.50;;
29854;SDS011;16733;48.738;9.106;2023-08-17T04:47:00;27.02;;;13.00;;
29854;SDS011;16733;48.738;9.106;2023-08-17T04:49:26;25.55;;;13.00;;
29854;SDS011;16733;48.738;9.106;2023-08-17T04:51:52;29.42;;;12.65;;
29854;SDS011;16733;48.738;9.106;2023-08-17T04:54:18;32.95;;;12.50;;
29854;SDS011;16733;48.738;9.106;2023-08-17T04:56:44;25.80;;;12.30;;
29854;SDS011;16733;48.738;9.106;2023-08-17T04:59:10;30.80;;;12.88;;
29854;SDS011;16733;48.738;9.106;2023-08-17T05:01:36;27.73;;;13.32;;
29854;SDS011;16733;48.738;9.106;2023-08-17T05:04:03;27.83;;;12.95;;
29854;SDS011;16733;48.738;9.106;2023-08-17T05:06:29;31.40;;;13.80;;
29854;SDS011;16733;48.738;9.106;2023-08-17T05:08:56;28.92;;;14.18;;
29854;SDS011;16733;48.738;9.106;2023-08-17T05:11:22;32.28;;;14.60;;
29854;SDS011;16733;48.738;9.106;2023-08-17T05:13:48;30.70;;;13.73;;
29854;SDS011;16733;48.738;9.106;2023-08-17T05:16:14;28.75;;;13.98;;
29854;SDS011;16733;48.738;9.106;2023-08-17T05:18:40;31.38;;;13.77;;
29854;SDS011;16733;48.738;9.106;2023-08-17T05:21:06;31.55;;;14.98;;
29854;SDS011;16733;48.738;9.106;2023-08-17T05:23:32;35.22;;;13.45;;
29854;SDS011;16733;48.738;9.106;2023-08-17T05:25:58;28.38;;;14.10;;
29854;SDS011;16733;48.738;9.106;2023-08-17T05:28:24;31.13;;;14.00;;
29854;SDS011;16733;48.738;9.106;2023-08-17T05:30:50;29.48;;;13.77;;
29854;SDS011;16733;48.738;9.106;2023-08-17T05:33:16;26.17;;;13.55;;
29854;SDS011;16733;48.738;9.106;2023-08-17T05:35:42;27.05;;;13.75;;
29854;SDS011;16733;48.738;9.106;2023-08-17T05:38:09;29.95;;;14.20;;
29854;SDS011;16733;48.738;9.106;2023-08-17T05:40:35;31.00;;;14.48;;
29854;SDS011;16733;48.738;9.106;2023-08-17T05:43:01;33.00;;;15.32;;
29854;SDS011;16733;48.738;9.106;2023-08-17T05:45:27;33.90;;;16.25;;
29854;SDS011;16733;48.738;9.106;2023-08-17T05:47:53;29.52;;;15.27;;
29854;SDS011;16733;48.738;9.106;2023-08-17T05:50:19;30.50;;;15.10;;
29854;SDS011;16733;48.738;9.106;2023-08-17T05:52:45;37.83;;;15.57;;
29854;SDS011;16733;48.738;9.106;2023-08-17T05:55:11;28.02;;;14.32;;
29854;SDS011;16733;48.738;9.106;2023-08-17T05:57:37;32.35;;;15.55;;
29854;SDS011;16733;48.738;9.106;2023-08-17T06:00:03;26.00;;;14.63;;
29854;SDS011;16733;48.738;9.106;2023-08-17T06:02:29;32.58;;;15.15;;
29854;SDS011;16733;48.738;9.106;2023-08-17T06:04:55;31.52;;;15.02;;
29854;SDS011;16733;48.738;9.106;2023-08-17T06:07:21;30.95;;;15.25;;
29854;SDS011;16733;48.738;9.106;2023-08-17T06:09:47;28.05;;;14.77;;
29854;SDS011;16733;48.738;9.106;2023-08-17T06:12:13;29.75;;;15.00;;
29854;SDS011;16733;48.738;9.106;2023-08-17T06:14:39;32.90;;;14.48;;
29854;SDS011;16733;48.738;9.106;2023-08-17T06:17:07;27.23;;;14.82;;
29854;SDS011;16733;48.738;9.106;2023-08-17T06:19:33;31.92;;;14.98;;
29854;SDS011;16733;48.738;9.106;2023-08-17T06:21:59;26.27;;;13.57;;
29854;SDS011;16733;48.738;9.106;2023-08-17T06:24:25;23.38;;;12.65;;
29854;SDS011;16733;48.738;9.106;2023-08-17T06:26:51;25.27;;;11.95;;
29854;SDS011;16733;48.738;9.106;2023-08-17T06:29:17;24.27;;;12.75;;
29854;SDS011;16733;48.738;9.106;2023-08-17T06:31:43;24.35;;;12.65;;
29854;SDS011;16733;48.738;9.106;2023-08-17T06:34:08;25.83;;;13.10;;
29854;SDS011;16733;48.738;9.106;2023-08-17T06:36:37;21.70;;;12.82;;
29854;SDS011;16733;48.738;9.106;2023-08-17T06:39:04;28.33;;;13.85;;
29854;SDS011;16733;48.738;9.106;2023-08-17T06:41:30;23.90;;;12.55;;
29854;SDS011;16733;48.738;9.106;2023-08-17T06:43:56;25.52;;;12.90;;
29854;SDS011;16733;48.738;9.106;2023-08-17T06:46:22;25.40;;;13.68;;
29854;SDS011;16733;48.738;9.106;2023-08-17T06:48:49;30.73;;;13.95;;
29854;SDS011;16733;48.738;9.106;2023-08-17T06:51:15;25.30;;;12.75;;
29854;SDS011;16733;48.738;9.106;2023-08-17T06:53:41;24.85;;;13.02;;
29854;SDS011;16733;48.738;9.106;2023-08-17T06:56:08;24.45;;;13.30;;
29854;SDS011;16733;48.738;9.106;2023-08-17T06:58:34;24.40;;;13.07;;
29854;SDS011;16733;48.738;9.106;2023-08-17T07:01:00;25.95;;;13.10;;
29854;SDS011;16733;48.738;9.106;2023-08-17T07:03:26;22.67;;;12.77;;
29854;SDS011;16733;48.738;9.106;2023-08-17T07:05:52;24.00;;;13.43;;
29854;SDS011;16733;48.738;9.106;2023-08-17T07:08:18;22.65;;;12.38;;
29854;SDS011;16733;48.738;9.106;2023-08-17T07:10:44;18.13;;;10.75;;
29854;SDS011;16733;48.738;9.106;2023-08-17T07:13:10;18.70;;;10.63;;
29854;SDS011;16733;48.738;9.106;2023-08-17T07:15:36;20.38;;;11.85;;
29854;SDS011;16733;48.738;9.106;2023-08-17T07:18:02;19.75;;;10.65;;
29854;SDS011;16733;48.738;9.106;2023-08-17T07:20:29;21.40;;;11.63;;
29854;SDS011;16733;48.738;9.106;2023-08-17T07:22:55;21.45;;;12.38;;
29854;SDS011;16733;48.738;9.106;2023-08-17T07:25:21;26.17;;;12.70;;
29854;SDS011;16733;48.738;9.106;2023-08-17T07:27:47;23.10;;;11.73;;
29854;SDS011;16733;48.738;9.106;2023-08-17T07:30:13;20.40;;;11.45;;
29854;SDS011;16733;48.738;9.106;2023-08-17T07:32:39;21.40;;;11.32;;
29854;SDS011;16733;48.738;9.106;2023-08-17T07:35:05;17.67;;;9.98;;
29854;SDS011;16733;48.738;9.106;2023-08-17T07:37:31;24.25;;;11.23;;
29854;SDS011;16733;48.738;9.106;2023-08-17T07:39:58;18.20;;;10.95;;
29854;SDS011;16733;48.738;9.106;2023-08-17T07:42:24;18.50;;;10.55;;
29854;SDS011;16733;48.738;9.106;2023-08-17T07:44:51;22.65;;;10.25;;
29854;SDS011;16733;48.738;9.106;2023-08-17T07:47:17;18.30;;;10.02;;
29854;SDS011;16733;48.738;9.106;2023-08-17T07:49:43;23.10;;;10.95;;
29854;SDS011;16733;48.738;9.106;2023-08-17T07:52:08;19.30;;;9.88;;
29854;SDS011;16733;48.738;9.106;2023-08-17T07:54:35;30.60;;;13.13;;
29854;SDS011;16733;48.738;9.106;2023-08-17T07:57:01;13.77;;;9.02;;
29854;SDS011;16733;48.738;9.106;2023-08-17T07:59:28;14.43;;;9.23;;
29854;SDS011;16733;48.738;9.106;2023-08-17T08:01:54;18.77;;;9.50;;
29854;SDS011;16733;48.738;9.106;2023-08-17T08:04:20;20.00;;;10.00;;
29854;SDS011;16733;48.738;9.106;2023-08-17T08:06:46;14.05;;;9.05;;
29854;SDS011;16733;48.738;9.106;2023-08-17T08:09:12;19.25;;;8.65;;
29854;SDS011;16733;48.738;9.106;2023-08-17T08:11:38;13.35;;;8.15;;
29854;SDS011;16733;48.738;9.106;2023-08-17T08:14:04;13.02;;;7.70;;
29854;SDS011;16733;48.738;9.106;2023-08-17T08:16:30;12.82;;;7.93;;
29854;SDS011;16733;48.738;9.106;2023-08-17T08:18:56;13.65;;;6.65;;
29854;SDS011;16733;48.738;9.106;2023-08-17T08:21:22;8.48;;;5.97;;
29854;SDS011;16733;48.738;9.106;2023-08-17T08:23:48;12.13;;;5.93;;
29854;SDS011;16733;48.738;9.106;2023-08-17T08:26:14;9.60;;;5.63;;
29854;SDS011;16733;48.738;9.106;2023-08-17T08:28:40;9.95;;;6.03;;
29854;SDS011;16733;48.738;9.106;2023-08-17T08:31:06;13.55;;;6.43;;
29854;SDS011;16733;48.738;9.106;2023-08-17T08:33:32;12.82;;;7.13;;
29854;SDS011;16733;48.738;9.106;2023-08-17T08:35:58;11.15;;;6.18;;
29854;SDS011;16733;48.738;9.106;2023-08-17T08:38:24;11.65;;;7.38;;
29854;SDS011;16733;48.738;9.106;2023-08-17T08:40:50;13.75;;;6.22;;
29854;SDS011;16733;48.738;9.106;2023-08-17T08:43:17;20.40;;;5.78;;
29854;SDS011;16733;48.738;9.106;2023-08-17T08:45:43;9.07;;;5.18;;
29854;SDS011;16733;48.738;9.106;2023-08-17T08:48:10;10.93;;;4.80;;
29854;SDS011;16733;48.738;9.106;2023-08-17T08:50:37;6.28;;;4.07;;
29854;SDS011;16733;48.738;9.106;2023-08-17T08:53:05;5.68;;;3.97;;
29854;SDS011;16733;48.738;9.106;2023-08-17T08:55:37;5.57;;;3.60;;
29854;SDS011;16733;48.738;9.106;2023-08-17T08:58:06;10.23;;;3.90;;
29854;SDS011;16733;48.738;9.106;2023-08-17T09:00:33;6.63;;;4.22;;
29854;SDS011;16733;48.738;9.106;2023-08-17T09:02:59;9.27;;;3.25;;
29854;SDS011;16733;48.738;9.106;2023-08-17T09:05:28;5.47;;;3.97;;
29854;SDS011;16733;48.738;9.106;2023-08-17T09:07:54;7.38;;;4.60;;
29854;SDS011;16733;48.738;9.106;2023-08-17T09:10:22;5.82;;;4.03;;
29854;SDS011;16733;48.738;9.106;2023-08-17T09:12:48;5.15;;;3.97;;
29854;SDS011;16733;48.738;9.106;2023-08-17T09:15:14;6.57;;;4.07;;
29854;SDS011;16733;48.738;9.106;2023-08-17T09:17:40;8.32;;;3.63;;
29854;SDS011;16733;48.738;9.106;2023-08-17T09:20:06;6.38;;;3.47;;
29854;SDS011;16733;48.738;9.106;2023-08-17T09:25:03;5.47;;;3.72;;
29854;SDS011;16733;48.738;9.106;2023-08-17T09:27:31;8.55;;;3.30;;
29854;SDS011;16733;48.738;9.106;2023-08-17T09:30:01;5.70;;;2.92;;
29854;SDS011;16733;48.738;9.106;2023-08-17T09:32:30;5.80;;;3.17;;
29854;SDS011;16733;48.738;9.106;2023-08-17T09:34:56;5.03;;;3.22;;
29854;SDS011;16733;48.738;9.106;2023-08-17T09:37:22;3.17;;;2.85;;
29854;SDS011;16733;48.738;9.106;2023-08-17T09:39:48;5.18;;;3.45;;
29854;SDS011;16733;48.738;9.106;2023-08-17T09:42:14;5.28;;;3.40;;
29854;SDS011;16733;48.738;9.106;2023-08-17T09:44:43;7.43;;;2.97;;
29854;SDS011;16733;48.738;9.106;2023-08-17T09:47:10;4.38;;;3.22;;
29854;SDS011;16733;48.738;9.106;2023-08-17T09:49:36;3.20;;;2.78;;
29854;SDS011;16733;48.738;9.106;2023-08-17T09:52:02;4.75;;;2.97;;
29854;SDS011;16733;48.738;9.106;2023-08-17T09:54:28;5.70;;;3.55;;
29854;SDS011;16733;48.738;9.106;2023-08-17T09:56:56;5.63;;;3.20;;
29854;SDS011;16733;48.738;9.106;2023-08-17T09:59:22;4.38;;;2.78;;
29854;SDS011;16733;48.738;9.106;2023-08-17T10:01:49;4.85;;;3.42;;
29854;SDS011;16733;48.738;9.106;2023-08-17T10:04:19;4.75;;;3.40;;
29854;SDS011;16733;48.738;9.106;2023-08-17T10:06:47;4.47;;;3.03;;
29854;SDS011;16733;48.738;9.106;2023-08-17T10:09:13;6.68;;;3.28;;
29854;SDS011;16733;48.738;9.106;2023-08-17T10:11:41;7.22;;;2.97;;
29854;SDS011;16733;48.738;9.106;2023-08-17T10:14:09;7.25;;;3.10;;
29854;SDS011;16733;48.738;9.106;2023-08-17T10:16:42;7.18;;;2.95;;
29854;SDS011;16733;48.738;9.106;2023-08-17T10:21:48;7.80;;;3.25;;
29854;SDS011;16733;48.738;9.106;2023-08-17T10:24:17;6.10;;;3.30;;
29854;SDS011;16733;48.738;9.106;2023-08-17T10:26:45;5.80;;;3.03;;
29854;SDS011;16733;48.738;9.106;2023-08-17T10:29:12;4.00;;;2.95;;
29854;SDS011;16733;48.738;9.106;2023-08-17T10:31:38;4.82;;;3.38;;
29854;SDS011;16733;48.738;9.106;2023-08-17T10:34:05;6.28;;;3.47;;
29854;SDS011;16733;48.738;9.106;2023-08-17T10:36:31;10.40;;;4.07;;
29854;SDS011;16733;48.738;9.106;2023-08-17T10:41:48;4.00;;;2.90;;
29854;SDS011;16733;48.738;9.106;2023-08-17T10:44:17;6.25;;;3.45;;
29854;SDS011;16733;48.738;9.106;2023-08-17T10:46:43;6.53;;;3.30;;
29854;SDS011;16733;48.738;9.106;2023-08-17T10:49:24;5.05;;;3.65;;
29854;SDS011;16733;48.738;9.106;2023-08-17T10:52:03;5.90;;;3.40;;
29854;SDS011;16733;48.738;9.106;2023-08-17T10:54:42;4.25;;;3.60;;
29854;SDS011;16733;48.738;9.106;2023-08-17T10:57:24;4.50;;;3.25;;
29854;SDS011;16733;48.738;9.106;2023-08-17T11:00:04;4.82;;;3.15;;
29854;SDS011;16733;48.738;9.106;2023-08-17T11:02:33;6.43;;;3.00;;
29854;SDS011;16733;48.738;9.106;2023-08-17T11:05:02;7.20;;;3.60;;
29854;SDS011;16733;48.738;9.106;2023-08-17T11:07:38;4.57;;;3.75;;
29854;SDS011;16733;48.738;9.106;2023-08-17T11:12:45;5.65;;;2.83;;
29854;SDS011;16733;48.738;9.106;2023-08-17T11:15:11;6.18;;;3.03;;
29854;SDS011;16733;48.738;9.106;2023-08-17T11:17:37;7.57;;;3.33;;
29854;SDS011;16733;48.738;9.106;2023-08-17T11:20:03;4.40;;;3.47;;
29854;SDS011;16733;48.738;9.106;2023-08-17T11:22:29;3.28;;;2.85;;
29854;SDS011;16733;48.738;9.106;2023-08-17T11:24:55;5.90;;;3.40;;
29854;SDS011;16733;48.738;9.106;2023-08-17T11:27:21;6.97;;;3.20;;
29854;SDS011;16733;48.738;9.106;2023-08-17T11:29:48;5.45;;;3.22;;
29854;SDS011;16733;48.738;9.106;2023-08-17T11:32:17;6.95;;;3.40;;
29854;SDS011;16733;48.738;9.106;2023-08-17T11:34:43;4.30;;;2.80;;
29854;SDS011;16733;48.738;9.106;2023-08-17T11:37:11;4.43;;;2.58;;
29854;SDS011;16733;48.738;9.106;2023-08-17T11:39:37;10.80;;;2.95;;
29854;SDS011;16733;48.738;9.106;2023-08-17T11:42:03;3.08;;;2.53;;
29854;SDS011;16733;48.738;9.106;2023-08-17T11:44:29;5.63;;;3.13;;
29854;SDS011;16733;48.738;9.106;2023-08-17T11:46:55;6.50;;;2.90;;
29854;SDS011;16733;48.738;9.106;2023-08-17T11:49:21;4.93;;;3.17;;
29854;SDS011;16733;48.738;9.106;2023-08-17T11:51:49;5.68;;;2.78;;
29854;SDS011;16733;48.738;9.106;2023-08-17T11:54:16;4.13;;;2.85;;
29854;SDS011;16733;48.738;9.106;2023-08-17T11:56:42;4.93;;;3.40;;
29854;SDS011;16733;48.738;9.106;2023-08-17T11:59:08;7.07;;;3.00;;
29854;SDS011;16733;48.738;9.106;2023-08-17T12:01:36;4.18;;;2.88;;
29854;SDS011;16733;48.738;9.106;2023-08-17T12:04:05;5.57;;;2.95;;
29854;SDS011;16733;48.738;9.106;2023-08-17T12:06:32;5.93;;;2.88;;
29854;SDS011;16733;48.738;9.106;2023-08-17T12:08:58;6.55;;;2.85;;
29854;SDS011;16733;48.738;9.106;2023-08-17T12:11:24;3.33;;;2.70;;
29854;SDS011;16733;48.738;9.106;2023-08-17T12:13:53;4.35;;;3.20;;
29854;SDS011;16733;48.738;9.106;2023-08-17T12:16:19;3.88;;;2.83;;
29854;SDS011;16733;48.738;9.106;2023-08-17T12:18:50;7.28;;;3.22;;
29854;SDS011;16733;48.738;9.106;2023-08-17T12:21:16;5.50;;;3.00;;
29854;SDS011;16733;48.738;9.106;2023-08-17T12:23:42;7.82;;;3.20;;
29854;SDS011;16733;48.738;9.106;2023-08-17T12:26:08;6.60;;;3.30;;
29854;SDS011;16733;48.738;9.106;2023-08-17T12:28:34;5.88;;;3.17;;
29854;SDS011;16733;48.738;9.106;2023-08-17T12:31:01;8.55;;;3.83;;
29854;SDS011;16733;48.738;9.106;2023-08-17T12:33:27;13.55;;;4.43;;
29854;SDS011;16733;48.738;9.106;2023-08-17T12:35:53;4.63;;;4.18;;
29854;SDS011;16733;48.738;9.106;2023-08-17T12:38:20;6.30;;;4.32;;
29854;SDS011;16733;48.738;9.106;2023-08-17T12:40:46;6.32;;;4.47;;
29854;SDS011;16733;48.738;9.106;2023-08-17T12:43:12;7.00;;;4.60;;
29854;SDS011;16733;48.738;9.106;2023-08-17T12:45:37;7.63;;;4.25;;
29854;SDS011;16733;48.738;9.106;2023-08-17T12:48:04;7.45;;;4.65;;
29854;SDS011;16733;48.738;9.106;2023-08-17T12:50:30;6.30;;;4.28;;
29854;SDS011;16733;48.738;9.106;2023-08-17T12:52:56;5.82;;;4.13;;
29854;SDS011;16733;48.738;9.106;2023-08-17T12:55:22;6.00;;;4.30;;
29854;SDS011;16733;48.738;9.106;2023-08-17T12:57:48;6.47;;;4.03;;
29854;SDS011;16733;48.738;9.106;2023-08-17T13:00:14;9.13;;;5.20;;
29854;SDS011;16733;48.738;9.106;2023-08-17T13:02:40;7.97;;;4.90;;
29854;SDS011;16733;48.738;9.106;2023-08-17T13:05:06;7.55;;;4.55;;
29854;SDS011;16733;48.738;9.106;2023-08-17T13:07:32;9.18;;;3.97;;
29854;SDS011;16733;48.738;9.106;2023-08-17T13:09:58;9.10;;;4.50;;
29854;SDS011;16733;48.738;9.106;2023-08-17T13:12:24;7.20;;;3.85;;
29854;SDS011;16733;48.738;9.106;2023-08-17T13:14:50;9.07;;;3.72;;
29854;SDS011;16733;48.738;9.106;2023-08-17T13:17:17;10.60;;;4.55;;
29854;SDS011;16733;48.738;9.106;2023-08-17T13:19:43;14.13;;;4.70;;
29854;SDS011;16733;48.738;9.106;2023-08-17T13:22:09;8.88;;;5.13;;
29854;SDS011;16733;48.738;9.106;2023-08-17T13:24:35;12.75;;;5.60;;
29854;SDS011;16733;48.738;9.106;2023-08-17T13:27:01;11.35;;;5.38;;
29854;SDS011;16733;48.738;9.106;2023-08-17T13:29:27;10.65;;;5.15;;
29854;SDS011;16733;48.738;9.106;2023-08-17T13:31:53;9.95;;;5.32;;
29854;SDS011;16733;48.738;9.106;2023-08-17T13:34:19;10.38;;;5.97;;
29854;SDS011;16733;48.738;9.106;2023-08-17T13:36:45;8.98;;;6.03;;
29854;SDS011;16733;48.738;9.106;2023-08-17T13:39:11;11.25;;;5.65;;
29854;SDS011;16733;48.738;9.106;2023-08-17T13:41:37;12.73;;;6.22;;
29854;SDS011;16733;48.738;9.106;2023-08-17T13:44:03;8.90;;;5.97;;
29854;SDS011;16733;48.738;9.106;2023-08-17T13:46:29;12.82;;;7.28;;
29854;SDS011;16733;48.738;9.106;2023-08-17T13:48:55;12.30;;;6.68;;
29854;SDS011;16733;48.738;9.106;2023-08-17T13:51:21;12.20;;;6.50;;
29854;SDS011;16733;48.738;9.106;2023-08-17T13:53:47;13.23;;;6.85;;
29854;SDS011;16733;48.738;9.106;2023-08-17T13:56:13;9.50;;;6.70;;
29854;SDS011;16733;48.738;9.106;2023-08-17T13:58:39;8.65;;;6.45;;
29854;SDS011;16733;48.738;9.106;2023-08-17T14:01:05;14.43;;;7.00;;
29854;SDS011;16733;48.738;9.106;2023-08-17T14:03:31;12.82;;;7.65;;
29854;SDS011;16733;48.738;9.106;2023-08-17T14:05:57;9.57;;;6.32;;
29854;SDS011;16733;48.738;9.106;2023-08-17T14:08:23;10.60;;;6.38;;
29854;SDS011;16733;48.738;9.106;2023-08-17T14:10:49;13.52;;;7.10;;
29854;SDS011;16733;48.738;9.106;2023-08-17T14:13:15;10.65;;;7.35;;
29854;SDS011;16733;48.738;9.106;2023-08-17T14:15:41;13.70;;;7.60;;
29854;SDS011;16733;48.738;9.106;2023-08-17T14:18:07;13.75;;;8.18;;
29854;SDS011;16733;48.738;9.106;2023-08-17T14:20:33;11.10;;;8.35;;
29854;SDS011;16733;48.738;9.106;2023-08-17T14:22:59;10.32;;;7.20;;
29854;SDS011;16733;48.738;9.106;2023-08-17T14:25:25;12.63;;;7.43;;
29854;SDS011;16733;48.738;9.106;2023-08-17T14:27:53;13.00;;;7.38;;
29854;SDS011;16733;48.738;9.106;2023-08-17T14:30:19;11.40;;;7.25;;
29854;SDS011;16733;48.738;9.106;2023-08-17T14:32:45;12.13;;;7.65;;
29854;SDS011;16733;48.738;9.106;2023-08-17T14:35:11;12.68;;;8.02;;
29854;SDS011;16733;48.738;9.106;2023-08-17T14:37:37;11.93;;;7.78;;
29854;SDS011;16733;48.738;9.106;2023-08-17T14:40:03;12.90;;;8.50;;
29854;SDS011;16733;48.738;9.106;2023-08-17T14:42:29;13.15;;;8.05;;
29854;SDS011;16733;48.738;9.106;2023-08-17T14:44:55;13.75;;;8.50;;